sensor_id;sensor_type;location;lat;lon;timestamp;P1;durP1;ratioP1;P2;durP2;ratioP2
22606;SDS011;11470;20.968;105.834;2024-02-26T00:02:04;25.00;;;16.38;;
22606;SDS011;11470;20.968;105.834;2024-02-26T00:07:10;33.80;;;19.83;;
22606;SDS011;11470;20.968;105.834;2024-02-26T00:12:15;30.33;;;18.40;;
22606;SDS011;11470;20.968;105.834;2024-02-26T00:17:20;24.67;;;14.55;;
22606;SDS011;11470;20.968;105.834;2024-02-26T00:22:24;28.67;;;17.13;;
22606;SDS011;11470;20.968;105.834;2024-02-26T00:27:29;26.60;;;15.93;;
22606;SDS011;11470;20.968;105.834;2024-02-26T00:32:34;26.92;;;17.17;;
22606;SDS011;11470;20.968;105.834;2024-02-26T00:37:39;28.33;;;14.98;;
22606;SDS011;11470;20.968;105.834;2024-02-26T00:42:46;30.42;;;18.63;;
22606;SDS011;11470;20.968;105.834;2024-02-26T00:47:51;27.05;;;16.05;;
22606;SDS011;11470;20.968;105.834;2024-02-26T00:52:56;24.48;;;14.85;;
22606;SDS011;11470;20.968;105.834;2024-02-26T00:58:00;29.73;;;16.88;;
22606;SDS011;11470;20.968;105.834;2024-02-26T01:03:05;26.58;;;17.60;;
22606;SDS011;11470;20.968;105.834;2024-02-26T01:08:10;21.85;;;8.30;;
22606;SDS011;11470;20.968;105.834;2024-02-26T01:13:16;28.92;;;17.30;;
22606;SDS011;11470;20.968;105.834;2024-02-26T01:18:21;22.40;;;13.60;;
22606;SDS011;11470;20.968;105.834;2024-02-26T01:23:26;23.23;;;14.33;;
22606;SDS011;11470;20.968;105.834;2024-02-26T01:28:31;27.48;;;15.20;;
22606;SDS011;11470;20.968;105.834;2024-02-26T01:33:36;21.35;;;12.52;;
22606;SDS011;11470;20.968;105.834;2024-02-26T01:38:40;32.30;;;17.30;;
22606;SDS011;11470;20.968;105.834;2024-02-26T01:43:46;28.17;;;15.95;;
22606;SDS011;11470;20.968;105.834;2024-02-26T01:48:51;20.08;;;13.05;;
22606;SDS011;11470;20.968;105.834;2024-02-26T01:53:57;19.33;;;13.10;;
22606;SDS011;11470;20.968;105.834;2024-02-26T01:59:05;30.13;;;18.67;;
22606;SDS011;11470;20.968;105.834;2024-02-26T02:09:16;21.13;;;13.50;;
22606;SDS011;11470;20.968;105.834;2024-02-26T02:14:22;24.60;;;15.27;;
22606;SDS011;11470;20.968;105.834;2024-02-26T02:19:28;20.48;;;13.63;;
22606;SDS011;11470;20.968;105.834;2024-02-26T02:24:33;25.90;;;16.20;;
22606;SDS011;11470;20.968;105.834;2024-02-26T02:29:39;20.93;;;13.73;;
22606;SDS011;11470;20.968;105.834;2024-02-26T02:34:45;22.98;;;15.18;;
22606;SDS011;11470;20.968;105.834;2024-02-26T02:39:50;19.67;;;12.73;;
22606;SDS011;11470;20.968;105.834;2024-02-26T02:44:57;21.05;;;13.38;;
22606;SDS011;11470;20.968;105.834;2024-02-26T02:50:03;12.88;;;7.05;;
22606;SDS011;11470;20.968;105.834;2024-02-26T02:55:08;22.30;;;15.77;;
22606;SDS011;11470;20.968;105.834;2024-02-26T03:00:14;18.17;;;11.03;;
22606;SDS011;11470;20.968;105.834;2024-02-26T03:05:19;17.40;;;9.95;;
22606;SDS011;11470;20.968;105.834;2024-02-26T03:10:24;17.48;;;10.60;;
22606;SDS011;11470;20.968;105.834;2024-02-26T03:15:30;19.55;;;13.27;;
22606;SDS011;11470;20.968;105.834;2024-02-26T03:20:36;18.03;;;10.77;;
22606;SDS011;11470;20.968;105.834;2024-02-26T03:25:41;26.50;;;17.17;;
22606;SDS011;11470;20.968;105.834;2024-02-26T03:30:50;32.08;;;22.63;;
22606;SDS011;11470;20.968;105.834;2024-02-26T03:35:55;28.20;;;18.55;;
22606;SDS011;11470;20.968;105.834;2024-02-26T03:41:00;31.70;;;18.73;;
22606;SDS011;11470;20.968;105.834;2024-02-26T03:46:08;24.15;;;17.25;;
22606;SDS011;11470;20.968;105.834;2024-02-26T03:51:14;24.88;;;15.10;;
22606;SDS011;11470;20.968;105.834;2024-02-26T03:56:19;30.70;;;20.27;;
22606;SDS011;11470;20.968;105.834;2024-02-26T04:01:25;10.80;;;6.55;;
22606;SDS011;11470;20.968;105.834;2024-02-26T04:06:30;43.38;;;28.73;;
22606;SDS011;11470;20.968;105.834;2024-02-26T04:11:36;40.75;;;24.02;;
22606;SDS011;11470;20.968;105.834;2024-02-26T04:17:06;37.13;;;25.30;;
22606;SDS011;11470;20.968;105.834;2024-02-26T04:22:11;47.22;;;24.00;;
22606;SDS011;11470;20.968;105.834;2024-02-26T04:27:17;43.83;;;25.57;;
22606;SDS011;11470;20.968;105.834;2024-02-26T04:32:22;57.35;;;33.75;;
22606;SDS011;11470;20.968;105.834;2024-02-26T04:37:27;46.72;;;18.08;;
22606;SDS011;11470;20.968;105.834;2024-02-26T04:42:35;46.42;;;15.45;;
22606;SDS011;11470;20.968;105.834;2024-02-26T04:47:42;70.33;;;37.70;;
22606;SDS011;11470;20.968;105.834;2024-02-26T04:52:51;64.90;;;31.13;;
22606;SDS011;11470;20.968;105.834;2024-02-26T04:57:56;76.38;;;46.92;;
22606;SDS011;11470;20.968;105.834;2024-02-26T05:03:01;54.10;;;28.67;;
22606;SDS011;11470;20.968;105.834;2024-02-26T05:08:06;46.13;;;16.15;;
22606;SDS011;11470;20.968;105.834;2024-02-26T05:13:10;49.58;;;23.05;;
22606;SDS011;11470;20.968;105.834;2024-02-26T05:18:18;81.50;;;48.00;;
22606;SDS011;11470;20.968;105.834;2024-02-26T05:23:23;53.03;;;32.33;;
22606;SDS011;11470;20.968;105.834;2024-02-26T05:28:29;59.93;;;34.93;;
22606;SDS011;11470;20.968;105.834;2024-02-26T05:33:34;51.47;;;30.13;;
22606;SDS011;11470;20.968;105.834;2024-02-26T05:38:40;62.10;;;45.43;;
22606;SDS011;11470;20.968;105.834;2024-02-26T05:43:45;49.85;;;33.50;;
22606;SDS011;11470;20.968;105.834;2024-02-26T05:48:51;59.50;;;33.30;;
22606;SDS011;11470;20.968;105.834;2024-02-26T05:53:57;59.20;;;18.98;;
22606;SDS011;11470;20.968;105.834;2024-02-26T05:59:02;50.97;;;28.02;;
22606;SDS011;11470;20.968;105.834;2024-02-26T06:04:07;72.53;;;49.50;;
22606;SDS011;11470;20.968;105.834;2024-02-26T06:09:12;69.72;;;46.15;;
22606;SDS011;11470;20.968;105.834;2024-02-26T06:14:17;63.47;;;42.58;;
22606;SDS011;11470;20.968;105.834;2024-02-26T06:19:23;63.27;;;46.63;;
22606;SDS011;11470;20.968;105.834;2024-02-26T06:24:29;55.07;;;39.90;;
22606;SDS011;11470;20.968;105.834;2024-02-26T06:29:34;51.97;;;36.10;;
22606;SDS011;11470;20.968;105.834;2024-02-26T06:34:42;36.38;;;22.13;;
22606;SDS011;11470;20.968;105.834;2024-02-26T06:39:48;29.73;;;13.57;;
22606;SDS011;11470;20.968;105.834;2024-02-26T06:44:53;44.20;;;19.60;;
22606;SDS011;11470;20.968;105.834;2024-02-26T06:49:58;52.73;;;32.70;;
22606;SDS011;11470;20.968;105.834;2024-02-26T06:55:04;74.00;;;48.00;;
22606;SDS011;11470;20.968;105.834;2024-02-26T07:00:12;52.63;;;33.78;;
22606;SDS011;11470;20.968;105.834;2024-02-26T07:05:19;59.42;;;38.83;;
22606;SDS011;11470;20.968;105.834;2024-02-26T07:10:24;60.28;;;39.25;;
22606;SDS011;11470;20.968;105.834;2024-02-26T07:15:29;50.63;;;32.67;;
22606;SDS011;11470;20.968;105.834;2024-02-26T07:20:34;54.00;;;40.15;;
22606;SDS011;11470;20.968;105.834;2024-02-26T07:25:39;60.60;;;43.30;;
22606;SDS011;11470;20.968;105.834;2024-02-26T07:30:46;32.88;;;20.70;;
22606;SDS011;11470;20.968;105.834;2024-02-26T07:35:52;48.13;;;34.40;;
22606;SDS011;11470;20.968;105.834;2024-02-26T07:40:57;62.55;;;38.90;;
22606;SDS011;11470;20.968;105.834;2024-02-26T07:46:05;41.97;;;28.70;;
22606;SDS011;11470;20.968;105.834;2024-02-26T07:51:14;47.67;;;32.78;;
22606;SDS011;11470;20.968;105.834;2024-02-26T07:56:19;43.55;;;27.70;;
22606;SDS011;11470;20.968;105.834;2024-02-26T08:01:24;41.72;;;26.77;;
22606;SDS011;11470;20.968;105.834;2024-02-26T08:06:30;37.27;;;23.90;;
22606;SDS011;11470;20.968;105.834;2024-02-26T08:11:39;56.75;;;39.70;;
22606;SDS011;11470;20.968;105.834;2024-02-26T08:16:45;51.40;;;33.90;;
22606;SDS011;11470;20.968;105.834;2024-02-26T08:21:51;53.37;;;35.87;;
22606;SDS011;11470;20.968;105.834;2024-02-26T08:26:55;50.15;;;36.28;;
22606;SDS011;11470;20.968;105.834;2024-02-26T08:32:00;39.38;;;25.95;;
22606;SDS011;11470;20.968;105.834;2024-02-26T08:37:06;51.53;;;35.90;;
22606;SDS011;11470;20.968;105.834;2024-02-26T08:42:11;58.63;;;41.70;;
22606;SDS011;11470;20.968;105.834;2024-02-26T08:47:16;35.60;;;23.90;;
22606;SDS011;11470;20.968;105.834;2024-02-26T08:52:21;23.90;;;14.70;;
22606;SDS011;11470;20.968;105.834;2024-02-26T08:57:26;47.78;;;32.72;;
22606;SDS011;11470;20.968;105.834;2024-02-26T09:02:32;38.57;;;26.00;;
22606;SDS011;11470;20.968;105.834;2024-02-26T09:07:37;56.05;;;38.30;;
22606;SDS011;11470;20.968;105.834;2024-02-26T09:12:43;43.95;;;30.73;;
22606;SDS011;11470;20.968;105.834;2024-02-26T09:17:49;28.23;;;17.33;;
22606;SDS011;11470;20.968;105.834;2024-02-26T09:22:54;42.97;;;30.15;;
22606;SDS011;11470;20.968;105.834;2024-02-26T09:28:00;43.28;;;32.10;;
22606;SDS011;11470;20.968;105.834;2024-02-26T09:33:06;36.20;;;22.27;;
22606;SDS011;11470;20.968;105.834;2024-02-26T09:38:11;32.28;;;22.77;;
22606;SDS011;11470;20.968;105.834;2024-02-26T09:43:15;40.33;;;27.20;;
22606;SDS011;11470;20.968;105.834;2024-02-26T09:48:24;32.35;;;22.13;;
22606;SDS011;11470;20.968;105.834;2024-02-26T09:53:31;36.42;;;24.35;;
22606;SDS011;11470;20.968;105.834;2024-02-26T09:58:36;36.10;;;22.97;;
22606;SDS011;11470;20.968;105.834;2024-02-26T10:03:43;42.75;;;30.35;;
22606;SDS011;11470;20.968;105.834;2024-02-26T10:08:52;37.33;;;25.88;;
22606;SDS011;11470;20.968;105.834;2024-02-26T10:13:59;35.75;;;25.15;;
22606;SDS011;11470;20.968;105.834;2024-02-26T10:19:03;30.83;;;21.88;;
22606;SDS011;11470;20.968;105.834;2024-02-26T10:24:13;43.78;;;30.83;;
22606;SDS011;11470;20.968;105.834;2024-02-26T10:29:20;44.10;;;31.50;;
22606;SDS011;11470;20.968;105.834;2024-02-26T10:39:31;34.72;;;24.45;;
22606;SDS011;11470;20.968;105.834;2024-02-26T10:44:36;34.28;;;23.35;;
22606;SDS011;11470;20.968;105.834;2024-02-26T10:49:46;29.98;;;21.08;;
22606;SDS011;11470;20.968;105.834;2024-02-26T10:54:56;27.80;;;16.23;;
22606;SDS011;11470;20.968;105.834;2024-02-26T11:00:06;26.23;;;13.55;;
22606;SDS011;11470;20.968;105.834;2024-02-26T11:05:14;28.85;;;19.65;;
22606;SDS011;11470;20.968;105.834;2024-02-26T11:10:23;44.70;;;29.03;;
22606;SDS011;11470;20.968;105.834;2024-02-26T11:15:29;27.75;;;17.33;;
22606;SDS011;11470;20.968;105.834;2024-02-26T11:20:38;33.00;;;22.50;;
22606;SDS011;11470;20.968;105.834;2024-02-26T11:25:44;33.10;;;23.33;;
22606;SDS011;11470;20.968;105.834;2024-02-26T11:30:51;40.60;;;27.83;;
22606;SDS011;11470;20.968;105.834;2024-02-26T11:35:56;28.97;;;19.13;;
22606;SDS011;11470;20.968;105.834;2024-02-26T11:41:02;33.50;;;20.08;;
22606;SDS011;11470;20.968;105.834;2024-02-26T11:46:25;42.83;;;28.15;;
22606;SDS011;11470;20.968;105.834;2024-02-26T11:51:34;23.10;;;14.25;;
22606;SDS011;11470;20.968;105.834;2024-02-26T11:56:40;20.88;;;11.32;;
22606;SDS011;11470;20.968;105.834;2024-02-26T12:01:48;26.75;;;16.15;;
22606;SDS011;11470;20.968;105.834;2024-02-26T12:07:02;41.50;;;24.85;;
22606;SDS011;11470;20.968;105.834;2024-02-26T12:12:09;39.22;;;24.40;;
22606;SDS011;11470;20.968;105.834;2024-02-26T12:17:21;25.85;;;16.63;;
22606;SDS011;11470;20.968;105.834;2024-02-26T12:22:27;27.52;;;17.73;;
22606;SDS011;11470;20.968;105.834;2024-02-26T12:27:32;26.13;;;14.73;;
22606;SDS011;11470;20.968;105.834;2024-02-26T12:32:37;34.25;;;23.85;;
22606;SDS011;11470;20.968;105.834;2024-02-26T12:37:46;35.47;;;23.25;;
22606;SDS011;11470;20.968;105.834;2024-02-26T12:42:53;30.48;;;18.55;;
22606;SDS011;11470;20.968;105.834;2024-02-26T12:48:01;35.72;;;24.60;;
22606;SDS011;11470;20.968;105.834;2024-02-26T12:53:09;30.15;;;20.42;;
22606;SDS011;11470;20.968;105.834;2024-02-26T12:58:15;17.40;;;9.95;;
22606;SDS011;11470;20.968;105.834;2024-02-26T13:03:22;32.55;;;21.52;;
22606;SDS011;11470;20.968;105.834;2024-02-26T13:08:31;59.15;;;36.22;;
22606;SDS011;11470;20.968;105.834;2024-02-26T13:13:38;28.98;;;16.77;;
22606;SDS011;11470;20.968;105.834;2024-02-26T13:18:43;30.98;;;15.73;;
22606;SDS011;11470;20.968;105.834;2024-02-26T13:24:04;40.60;;;21.45;;
22606;SDS011;11470;20.968;105.834;2024-02-26T13:29:17;29.35;;;20.52;;
22606;SDS011;11470;20.968;105.834;2024-02-26T13:34:25;31.90;;;21.50;;
22606;SDS011;11470;20.968;105.834;2024-02-26T13:39:33;31.27;;;21.60;;
22606;SDS011;11470;20.968;105.834;2024-02-26T13:44:42;36.45;;;20.00;;
22606;SDS011;11470;20.968;105.834;2024-02-26T13:50:03;28.38;;;18.02;;
22606;SDS011;11470;20.968;105.834;2024-02-26T13:55:09;18.25;;;9.82;;
22606;SDS011;11470;20.968;105.834;2024-02-26T14:00:14;27.60;;;16.67;;
22606;SDS011;11470;20.968;105.834;2024-02-26T14:05:27;31.67;;;18.25;;
22606;SDS011;11470;20.968;105.834;2024-02-26T14:10:35;36.45;;;21.88;;
22606;SDS011;11470;20.968;105.834;2024-02-26T14:15:46;29.80;;;18.95;;
22606;SDS011;11470;20.968;105.834;2024-02-26T14:20:57;24.05;;;14.65;;
22606;SDS011;11470;20.968;105.834;2024-02-26T14:26:02;27.50;;;17.70;;
22606;SDS011;11470;20.968;105.834;2024-02-26T14:31:07;29.83;;;19.75;;
22606;SDS011;11470;20.968;105.834;2024-02-26T14:36:14;27.77;;;16.60;;
22606;SDS011;11470;20.968;105.834;2024-02-26T14:41:19;27.80;;;17.52;;
22606;SDS011;11470;20.968;105.834;2024-02-26T14:46:24;36.15;;;25.25;;
22606;SDS011;11470;20.968;105.834;2024-02-26T14:51:29;26.90;;;17.00;;
22606;SDS011;11470;20.968;105.834;2024-02-26T15:02:21;28.83;;;17.93;;
22606;SDS011;11470;20.968;105.834;2024-02-26T15:07:26;18.90;;;11.43;;
22606;SDS011;11470;20.968;105.834;2024-02-26T15:12:35;27.73;;;17.83;;
22606;SDS011;11470;20.968;105.834;2024-02-26T15:17:40;28.07;;;19.07;;
22606;SDS011;11470;20.968;105.834;2024-02-26T15:22:58;22.80;;;16.52;;
22606;SDS011;11470;20.968;105.834;2024-02-26T15:28:04;20.17;;;13.43;;
22606;SDS011;11470;20.968;105.834;2024-02-26T15:33:17;21.67;;;13.73;;
22606;SDS011;11470;20.968;105.834;2024-02-26T15:38:35;23.98;;;16.17;;
22606;SDS011;11470;20.968;105.834;2024-02-26T15:43:43;26.67;;;15.75;;
22606;SDS011;11470;20.968;105.834;2024-02-26T15:49:16;25.10;;;18.38;;
22606;SDS011;11470;20.968;105.834;2024-02-26T15:54:22;24.60;;;16.88;;
22606;SDS011;11470;20.968;105.834;2024-02-26T15:59:29;33.40;;;23.95;;
22606;SDS011;11470;20.968;105.834;2024-02-26T16:04:39;19.70;;;11.45;;
22606;SDS011;11470;20.968;105.834;2024-02-26T16:09:56;19.17;;;12.70;;
22606;SDS011;11470;20.968;105.834;2024-02-26T16:15:47;22.35;;;13.98;;
22606;SDS011;11470;20.968;105.834;2024-02-26T16:20:59;19.52;;;13.50;;
22606;SDS011;11470;20.968;105.834;2024-02-26T16:26:11;29.88;;;18.77;;
22606;SDS011;11470;20.968;105.834;2024-02-26T16:36:26;27.75;;;17.67;;
22606;SDS011;11470;20.968;105.834;2024-02-26T16:41:34;30.88;;;20.83;;
22606;SDS011;11470;20.968;105.834;2024-02-26T16:46:40;21.95;;;13.65;;
22606;SDS011;11470;20.968;105.834;2024-02-26T16:51:46;22.52;;;14.20;;
22606;SDS011;11470;20.968;105.834;2024-02-26T16:56:52;23.67;;;16.35;;
22606;SDS011;11470;20.968;105.834;2024-02-26T17:02:04;21.35;;;13.73;;
22606;SDS011;11470;20.968;105.834;2024-02-26T17:07:13;33.40;;;19.35;;
22606;SDS011;11470;20.968;105.834;2024-02-26T17:12:21;33.45;;;18.80;;
22606;SDS011;11470;20.968;105.834;2024-02-26T17:17:34;18.67;;;11.02;;
22606;SDS011;11470;20.968;105.834;2024-02-26T17:22:40;26.10;;;13.88;;
22606;SDS011;11470;20.968;105.834;2024-02-26T17:27:47;25.25;;;15.90;;
22606;SDS011;11470;20.968;105.834;2024-02-26T17:32:55;21.92;;;13.73;;
22606;SDS011;11470;20.968;105.834;2024-02-26T17:38:00;20.58;;;14.50;;
22606;SDS011;11470;20.968;105.834;2024-02-26T17:43:08;20.13;;;13.65;;
22606;SDS011;11470;20.968;105.834;2024-02-26T17:48:16;25.95;;;15.73;;
22606;SDS011;11470;20.968;105.834;2024-02-26T17:53:22;12.80;;;7.30;;
22606;SDS011;11470;20.968;105.834;2024-02-26T17:58:30;17.67;;;10.55;;
22606;SDS011;11470;20.968;105.834;2024-02-26T18:03:36;19.00;;;10.88;;
22606;SDS011;11470;20.968;105.834;2024-02-26T18:13:48;14.77;;;8.32;;
22606;SDS011;11470;20.968;105.834;2024-02-26T18:18:58;16.20;;;9.25;;
22606;SDS011;11470;20.968;105.834;2024-02-26T18:24:05;18.75;;;11.70;;
22606;SDS011;11470;20.968;105.834;2024-02-26T18:29:10;15.32;;;10.70;;
22606;SDS011;11470;20.968;105.834;2024-02-26T18:34:15;13.65;;;11.25;;
22606;SDS011;11470;20.968;105.834;2024-02-26T18:39:20;17.63;;;10.07;;
22606;SDS011;11470;20.968;105.834;2024-02-26T18:44:26;14.73;;;9.90;;
22606;SDS011;11470;20.968;105.834;2024-02-26T18:49:31;13.93;;;9.18;;
22606;SDS011;11470;20.968;105.834;2024-02-26T18:54:39;16.80;;;10.10;;
22606;SDS011;11470;20.968;105.834;2024-02-26T18:59:47;15.50;;;9.02;;
22606;SDS011;11470;20.968;105.834;2024-02-26T19:09:58;13.63;;;8.10;;
22606;SDS011;11470;20.968;105.834;2024-02-26T19:15:03;17.25;;;11.20;;
22606;SDS011;11470;20.968;105.834;2024-02-26T19:20:10;12.35;;;7.85;;
22606;SDS011;11470;20.968;105.834;2024-02-26T19:25:15;23.08;;;13.73;;
22606;SDS011;11470;20.968;105.834;2024-02-26T19:30:20;15.75;;;9.68;;
22606;SDS011;11470;20.968;105.834;2024-02-26T19:35:25;12.23;;;6.97;;
22606;SDS011;11470;20.968;105.834;2024-02-26T19:40:30;10.60;;;5.55;;
22606;SDS011;11470;20.968;105.834;2024-02-26T19:45:34;11.48;;;7.95;;
22606;SDS011;11470;20.968;105.834;2024-02-26T19:50:40;15.43;;;9.20;;
22606;SDS011;11470;20.968;105.834;2024-02-26T19:55:48;10.43;;;6.13;;
22606;SDS011;11470;20.968;105.834;2024-02-26T20:00:53;9.75;;;6.32;;
22606;SDS011;11470;20.968;105.834;2024-02-26T20:05:58;13.80;;;7.07;;
22606;SDS011;11470;20.968;105.834;2024-02-26T20:11:03;14.30;;;6.70;;
22606;SDS011;11470;20.968;105.834;2024-02-26T20:16:09;11.25;;;7.25;;
22606;SDS011;11470;20.968;105.834;2024-02-26T20:21:13;10.55;;;6.13;;
22606;SDS011;11470;20.968;105.834;2024-02-26T20:26:18;11.70;;;6.38;;
22606;SDS011;11470;20.968;105.834;2024-02-26T20:31:23;8.07;;;5.80;;
22606;SDS011;11470;20.968;105.834;2024-02-26T20:36:28;8.88;;;5.28;;
22606;SDS011;11470;20.968;105.834;2024-02-26T20:41:33;7.47;;;4.68;;
22606;SDS011;11470;20.968;105.834;2024-02-26T20:46:41;9.25;;;6.25;;
22606;SDS011;11470;20.968;105.834;2024-02-26T20:51:46;8.85;;;5.95;;
22606;SDS011;11470;20.968;105.834;2024-02-26T20:56:51;7.50;;;5.60;;
22606;SDS011;11470;20.968;105.834;2024-02-26T21:01:56;6.72;;;4.03;;
22606;SDS011;11470;20.968;105.834;2024-02-26T21:07:00;6.40;;;3.78;;
22606;SDS011;11470;20.968;105.834;2024-02-26T21:12:06;8.18;;;4.65;;
22606;SDS011;11470;20.968;105.834;2024-02-26T21:17:12;8.65;;;6.25;;
22606;SDS011;11470;20.968;105.834;2024-02-26T21:22:16;10.27;;;6.10;;
22606;SDS011;11470;20.968;105.834;2024-02-26T21:27:21;6.88;;;4.72;;
22606;SDS011;11470;20.968;105.834;2024-02-26T21:32:26;9.48;;;5.50;;
22606;SDS011;11470;20.968;105.834;2024-02-26T21:37:32;8.17;;;5.43;;
22606;SDS011;11470;20.968;105.834;2024-02-26T21:42:37;6.75;;;5.18;;
22606;SDS011;11470;20.968;105.834;2024-02-26T21:47:44;7.75;;;5.13;;
22606;SDS011;11470;20.968;105.834;2024-02-26T21:52:49;9.20;;;5.63;;
22606;SDS011;11470;20.968;105.834;2024-02-26T21:57:54;8.07;;;4.50;;
22606;SDS011;11470;20.968;105.834;2024-02-26T22:02:59;4.10;;;3.00;;
22606;SDS011;11470;20.968;105.834;2024-02-26T22:08:04;4.88;;;3.83;;
22606;SDS011;11470;20.968;105.834;2024-02-26T22:13:09;5.47;;;3.20;;
22606;SDS011;11470;20.968;105.834;2024-02-26T22:18:14;7.30;;;4.15;;
22606;SDS011;11470;20.968;105.834;2024-02-26T22:23:18;7.22;;;3.25;;
22606;SDS011;11470;20.968;105.834;2024-02-26T22:28:23;7.10;;;4.85;;
22606;SDS011;11470;20.968;105.834;2024-02-26T22:33:28;8.32;;;5.30;;
22606;SDS011;11470;20.968;105.834;2024-02-26T22:38:34;3.67;;;3.00;;
22606;SDS011;11470;20.968;105.834;2024-02-26T22:43:39;9.20;;;5.28;;
22606;SDS011;11470;20.968;105.834;2024-02-26T22:48:45;9.65;;;6.30;;
22606;SDS011;11470;20.968;105.834;2024-02-26T22:53:50;4.75;;;3.08;;
22606;SDS011;11470;20.968;105.834;2024-02-26T22:58:55;9.73;;;5.82;;
22606;SDS011;11470;20.968;105.834;2024-02-26T23:04:00;8.30;;;6.00;;
22606;SDS011;11470;20.968;105.834;2024-02-26T23:09:05;4.88;;;3.75;;
22606;SDS011;11470;20.968;105.834;2024-02-26T23:14:11;5.67;;;5.07;;
22606;SDS011;11470;20.968;105.834;2024-02-26T23:19:16;20.75;;;13.50;;
22606;SDS011;11470;20.968;105.834;2024-02-26T23:24:21;8.35;;;4.63;;
22606;SDS011;11470;20.968;105.834;2024-02-26T23:29:26;6.93;;;4.90;;
22606;SDS011;11470;20.968;105.834;2024-02-26T23:34:31;11.55;;;4.65;;
22606;SDS011;11470;20.968;105.834;2024-02-26T23:39:36;8.38;;;3.60;;
22606;SDS011;11470;20.968;105.834;2024-02-26T23:44:42;5.05;;;3.30;;
22606;SDS011;11470;20.968;105.834;2024-02-26T23:49:47;7.27;;;5.90;;
22606;SDS011;11470;20.968;105.834;2024-02-26T23:54:52;7.22;;;4.55;;
22606;SDS011;11470;20.968;105.834;2024-02-26T23:59:57;7.97;;;3.78;;
